Buel, New York
Current Conditions -  °F | °C
As of 10:35 AM on Thursday 23 Oct 2014 (Local Time) from KNY0 Reporting Station
Overcast Overcast  
Wind Chill: 42°   Ceiling: 900
Heat Index: 45°   Visibility: 2mi
Dew Point: 44°   Wind: 5mph
Humidity: 98%   Direction: 300°WNW
Pressure: 29.86"   Gusts: NA
Location:  42.8548°N, 74.5942°W
Report Text: KNY0 231435Z AUTO 30004KT 2SM SCT002 BKN009 OVC024 07/07 A2986 RMK AO2 P0004 T00700067
Loading
Personal Weather Stations






























Interactive Weather Map
Tropical Storm Tracking
New forecast layout! Learn more

10-Day Weather Forecast

Advertisements
Track Severe Weather on mobile